No particular awareness of the weather is required.    There are no Weather-warnings


Meteo18 Weather Cam more information Meteo18 Weather Cam


Thunder radar more information blitzortung!


Rain radar more information rain snow radar


Visit our other weather sites:

Template documentation
and downloads

And another site



Weather Underground History page Text

Daily Summary for August 4, 2017 Units:  English    Metric   Both
« Previous Day
Next Day »
Daily Weekly Monthly Yearly Custom
  High: Low: Average:
Temperature: 78.3 °F 60.1 °F 69.3 °F
Dew Point: 63.3 °F 56.5 °F 59.2 °F
Humidity: 90 % 51 % 71 %
Wind Speed: 10 mph 0 mph 3.6 mph
Wind Gust: 14 mph - -
Wind:- - SW
Pressure: 30.1 in 30 in -
Precipitation: 0 in    
Historical Graphs
 
 
Tabular Data for August 4, 2017
Time Temperature Dew Point Pressure Wind Wind Speed Wind Gust Humidity Rainfall Rate (Hourly)
00:02 67.3 °F 61.2 °F 30.1 in SW 4 mph 6 mph 81 % 0 in
00:07 67.1 °F 61.2 °F 30.1 in SW 7 mph 7 mph 81 % 0 in
00:12 66.9 °F 61.2 °F 30.1 in WSW 5 mph 7 mph 82 % 0 in
00:17 66.7 °F 61 °F 30.1 in SW 3 mph 8 mph 82 % 0 in
00:22 66.6 °F 61.2 °F 30.1 in SSW 6 mph 8 mph 83 % 0 in
00:32 66.2 °F 61.2 °F 30.1 in SW 3 mph 7 mph 84 % 0 in
00:37 66 °F 61 °F 30.1 in WSW 4 mph 7 mph 84 % 0 in
00:42 66.2 °F 61.2 °F 30.1 in SW 6 mph 7 mph 84 % 0 in
00:47 66 °F 61 °F 30.1 in WSW 9 mph 9 mph 84 % 0 in
00:52 66.2 °F 61.2 °F 30.1 in WSW 4 mph 9 mph 84 % 0 in
00:57 66.4 °F 61.3 °F 30.1 in WSW 4 mph 9 mph 84 % 0 in
01:02 66.4 °F 61.3 °F 30.1 in WSW 3 mph 9 mph 84 % 0 in
01:07 66.4 °F 61.3 °F 30.1 in SW 2 mph 8 mph 84 % 0 in
01:12 66.4 °F 61.3 °F 30.1 in WSW 2 mph 8 mph 84 % 0 in
01:17 66.4 °F 61.3 °F 30.1 in WSW 3 mph 8 mph 84 % 0 in
01:22 66.2 °F 61.2 °F 30.1 in SSW 2 mph 8 mph 84 % 0 in
01:27 66.2 °F 61.2 °F 30.1 in WSW 4 mph 7 mph 84 % 0 in
01:32 66 °F 61.3 °F 30.1 in SW 6 mph 6 mph 85 % 0 in
01:37 66 °F 61 °F 30.1 in WSW 2 mph 7 mph 84 % 0 in
01:42 65.8 °F 60.8 °F 30.1 in SW 4 mph 8 mph 84 % 0 in
01:47 66 °F 60.6 °F 30.1 in SW 3 mph 8 mph 83 % 0 in
01:52 66 °F 60.4 °F 30.1 in SW 7 mph 8 mph 82 % 0 in
02:02 66 °F 59.7 °F 30.1 in SW 1 mph 8 mph 80 % 0 in
02:07 65.8 °F 60.3 °F 30.1 in SW 6 mph 8 mph 82 % 0 in
02:12 65.8 °F 60.6 °F 30.1 in WSW 5 mph 7 mph 83 % 0 in
02:17 65.7 °F 60.4 °F 30.1 in SSW 1 mph 8 mph 83 % 0 in
02:22 65.5 °F 59.5 °F 30.1 in West 2 mph 11 mph 81 % 0 in
02:27 65.7 °F 59 °F 30.1 in West 7 mph 11 mph 79 % 0 in
02:32 65.7 °F 58.6 °F 30.1 in WSW 5 mph 13 mph 78 % 0 in
02:37 65.7 °F 58.6 °F 30.1 in WSW 7 mph 13 mph 78 % 0 in
02:42 65.7 °F 58.6 °F 30.1 in WSW 6 mph 10 mph 78 % 0 in
02:47 65.3 °F 58.3 °F 30.1 in WSW 6 mph 10 mph 78 % 0 in
02:52 65.1 °F 58.1 °F 30.1 in WSW 3 mph 10 mph 78 % 0 in
02:57 64.9 °F 58.3 °F 30.1 in WSW 1 mph 7 mph 79 % 0 in
03:02 64.6 °F 57.9 °F 30.1 in SW 2 mph 7 mph 79 % 0 in
03:07 64.4 °F 58.1 °F 30.1 in West 1 mph 6 mph 80 % 0 in
03:12 64 °F 57.7 °F 30.1 in WSW 2 mph 6 mph 80 % 0 in
03:17 63.9 °F 57.9 °F 30.1 in SW 1 mph 5 mph 81 % 0 in
03:22 63.7 °F 57.7 °F 30.1 in Calm   5 mph 81 % 0 in
03:27 63.7 °F 57.7 °F 30.1 in WSW 2 mph 4 mph 81 % 0 in
03:32 63.5 °F 57.6 °F 30.1 in SW 3 mph 4 mph 81 % 0 in
03:37 63.3 °F 57.4 °F 30.1 in WSW 2 mph 5 mph 81 % 0 in
03:42 63.3 °F 57.4 °F 30.1 in WSW 4 mph 5 mph 81 % 0 in
03:47 63.1 °F 57.2 °F 30.1 in SW 3 mph 5 mph 81 % 0 in
03:57 63 °F 57.4 °F 30.1 in SW 2 mph 5 mph 82 % 0 in
04:02 62.8 °F 57.2 °F 30.1 in SW 2 mph 6 mph 82 % 0 in
04:12 62.4 °F 57.2 °F 30.1 in SW 3 mph 6 mph 83 % 0 in
04:17 62.4 °F 57.2 °F 30.1 in SW 2 mph 5 mph 83 % 0 in
04:22 62.2 °F 57 °F 30.1 in SW 2 mph 5 mph 83 % 0 in
04:27 62.1 °F 56.8 °F 30.1 in WSW 4 mph 5 mph 83 % 0 in
04:32 62.1 °F 56.8 °F 30.1 in SW 2 mph 5 mph 83 % 0 in
04:37 62.1 °F 56.8 °F 30.1 in SW 2 mph 5 mph 83 % 0 in
04:42 61.9 °F 57 °F 30.1 in SW 3 mph 4 mph 84 % 0 in
04:47 61.7 °F 56.8 °F 30.1 in SW 4 mph 4 mph 84 % 0 in
04:52 61.5 °F 56.7 °F 30.1 in SSW 1 mph 6 mph 84 % 0 in
05:02 61.2 °F 56.7 °F 30.1 in South 1 mph 6 mph 85 % 0 in
05:17 60.6 °F 56.5 °F 30.1 in Calm   4 mph 86 % 0 in
05:27 60.3 °F 56.7 °F 30.1 in SSW 1 mph 3 mph 88 % 0 in
05:32 60.3 °F 56.7 °F 30.1 in SSW 2 mph 4 mph 88 % 0 in
05:37 60.1 °F 56.5 °F 30.1 in SSW 3 mph 4 mph 88 % 0 in
05:42 60.1 °F 56.5 °F 30.1 in SSW 2 mph 4 mph 88 % 0 in
05:52 60.1 °F 56.5 °F 30.1 in SW 2 mph 4 mph 88 % 0 in
05:57 60.1 °F 56.5 °F 30.1 in SSW 2 mph 4 mph 88 % 0 in
06:02 60.1 °F 56.5 °F 30.1 in SSW 1 mph 4 mph 88 % 0 in
06:07 60.1 °F 56.5 °F 30.1 in SW 3 mph 4 mph 88 % 0 in
06:12 60.3 °F 56.7 °F 30.1 in SW 2 mph 5 mph 88 % 0 in
06:17 60.4 °F 56.5 °F 30.1 in WSW 6 mph 6 mph 87 % 0 in
06:22 60.6 °F 56.5 °F 30.1 in WSW 3 mph 7 mph 86 % 0 in
06:27 60.6 °F 56.5 °F 30.1 in SW 3 mph 7 mph 86 % 0 in
06:32 60.6 °F 56.5 °F 30.1 in WSW 4 mph 7 mph 86 % 0 in
06:37 60.8 °F 56.7 °F 30.1 in SW 2 mph 5 mph 86 % 0 in
06:42 60.6 °F 56.5 °F 30.1 in SW 2 mph 5 mph 86 % 0 in
06:47 60.6 °F 56.7 °F 30.1 in SW 3 mph 6 mph 87 % 0 in
06:52 60.4 °F 56.5 °F 30.1 in SSW 3 mph 6 mph 87 % 0 in
07:02 60.4 °F 56.8 °F 30.1 in SSW 2 mph 4 mph 88 % 0 in
07:07 60.3 °F 57 °F 30.1 in SW 2 mph 4 mph 89 % 0 in
07:12 60.3 °F 57 °F 30.1 in Calm   4 mph 89 % 0 in
07:17 60.3 °F 57 °F 30.1 in Calm   3 mph 89 % 0 in
07:22 60.3 °F 57 °F 30.1 in Calm   2 mph 89 % 0 in
07:32 60.4 °F 57.2 °F 30.1 in Calm   3 mph 89 % 0 in
07:37 60.6 °F 57.7 °F 30.1 in SSW 1 mph 3 mph 90 % 0 in
07:42 60.6 °F 57.7 °F 30.1 in SSW 1 mph 3 mph 90 % 0 in
07:47 60.8 °F 57.6 °F 30.1 in SW 2 mph 3 mph 89 % 0 in
07:52 61 °F 57.7 °F 30.1 in SSW 1 mph 5 mph 89 % 0 in
08:02 61.3 °F 57.7 °F 30.1 in South 2 mph 5 mph 88 % 0 in
08:12 61.9 °F 57.9 °F 30.1 in SW 4 mph 6 mph 87 % 0 in
08:17 61.9 °F 57.9 °F 30.1 in SW 6 mph 7 mph 87 % 0 in
08:22 61.9 °F 57.6 °F 30.1 in SSW 5 mph 9 mph 86 % 0 in
08:32 62.1 °F 58.1 °F 30.1 in SW 4 mph 9 mph 87 % 0 in
08:37 62.1 °F 57.7 °F 30.1 in SSW 2 mph 9 mph 86 % 0 in
08:42 62.2 °F 57.9 °F 30.1 in SSW 4 mph 9 mph 86 % 0 in
08:47 62.2 °F 57.9 °F 30.1 in SSW 6 mph 10 mph 86 % 0 in
08:52 62.4 °F 58.1 °F 30.1 in SW 6 mph 11 mph 86 % 0 in
08:57 63 °F 58.6 °F 30.1 in WSW 6 mph 11 mph 86 % 0 in
09:02 63.1 °F 58.6 °F 30.1 in SW 5 mph 11 mph 85 % 0 in
09:07 63.1 °F 58.6 °F 30.1 in SW 3 mph 8 mph 85 % 0 in
09:12 63.3 °F 58.8 °F 30.1 in WSW 6 mph 8 mph 85 % 0 in
09:17 63.7 °F 58.8 °F 30.1 in West 6 mph 7 mph 84 % 0 in
09:22 63.9 °F 59 °F 30.1 in Calm   7 mph 84 % 0 in
09:32 64.2 °F 59 °F 30.1 in SW 4 mph 7 mph 83 % 0 in
09:37 64.2 °F 58.6 °F 30.1 in WSW 5 mph 8 mph 82 % 0 in
09:42 64.2 °F 58.6 °F 30.1 in West 4 mph 9 mph 82 % 0 in
09:47 64.6 °F 58.6 °F 30.1 in WNW 10 mph 10 mph 81 % 0 in
09:52 64.8 °F 58.5 °F 30.1 in West 2 mph 10 mph 80 % 0 in
10:02 65.7 °F 58.6 °F 30.1 in SW 4 mph 10 mph 78 % 0 in
10:07 65.7 °F 58.3 °F 30.1 in West 1 mph 7 mph 77 % 0 in
10:12 66.2 °F 58.5 °F 30.1 in WNW 5 mph 8 mph 76 % 0 in
10:17 66.4 °F 58.6 °F 30.1 in SW 6 mph 8 mph 76 % 0 in
10:22 65.8 °F 58.5 °F 30.1 in SW 1 mph 11 mph 77 % 0 in
10:27 66 °F 58.3 °F 30.1 in SW 6 mph 11 mph 76 % 0 in
10:32 66 °F 58.3 °F 30.1 in West 5 mph 11 mph 76 % 0 in
10:37 66 °F 57.9 °F 30.1 in SW 5 mph 10 mph 75 % 0 in
10:42 65.8 °F 57.7 °F 30.1 in SW 5 mph 10 mph 75 % 0 in
10:52 66.7 °F 58.6 °F 30.1 in SW 4 mph 10 mph 75 % 0 in
10:57 67.3 °F 58.3 °F 30.1 in SSW 4 mph 10 mph 73 % 0 in
11:02 67.3 °F 58.6 °F 30.1 in SW 2 mph 10 mph 74 % 0 in
11:07 67.6 °F 58.3 °F 30.1 in SSW 3 mph 10 mph 72 % 0 in
11:12 67.6 °F 57.9 °F 30.1 in WSW 8 mph 10 mph 71 % 0 in
11:17 67.5 °F 58.1 °F 30.1 in SW 8 mph 11 mph 72 % 0 in
11:22 67.5 °F 58.5 °F 30.1 in SW 4 mph 11 mph 73 % 0 in
11:27 67.6 °F 57.9 °F 30.1 in WSW 4 mph 11 mph 71 % 0 in
11:32 67.6 °F 57.9 °F 30.1 in West 5 mph 9 mph 71 % 0 in
11:37 67.6 °F 57.6 °F 30.1 in SW 4 mph 10 mph 70 % 0 in
11:47 68 °F 57 °F 30.1 in SSW 3 mph 10 mph 68 % 0 in
11:52 68.2 °F 57.6 °F 30.1 in West 5 mph 10 mph 69 % 0 in
11:57 68.9 °F 58.3 °F 30.1 in SW 5 mph 13 mph 69 % 0 in
12:02 69.1 °F 58.5 °F 30.1 in South 4 mph 13 mph 69 % 0 in
12:07 69.3 °F 59.5 °F 30.1 in SW 4 mph 13 mph 71 % 0 in
12:12 69.3 °F 57.4 °F 30.1 in West 4 mph 12 mph 66 % 0 in
12:17 69.4 °F 57.9 °F 30.1 in WSW 3 mph 12 mph 67 % 0 in
12:22 70 °F 58.5 °F 30.1 in WSW 7 mph 10 mph 67 % 0 in
12:32 69.8 °F 58.3 °F 30.1 in West 6 mph 11 mph 67 % 0 in
12:37 70 °F 57.7 °F 30.1 in West 7 mph 11 mph 65 % 0 in
12:42 70.3 °F 58.1 °F 30.1 in SSW 4 mph 11 mph 65 % 0 in
12:52 70.2 °F 57.9 °F 30.1 in SW 5 mph 14 mph 65 % 0 in
12:57 70.9 °F 58.1 °F 30.1 in SW 2 mph 14 mph 64 % 0 in
13:07 71.1 °F 56.8 °F 30.1 in SW 3 mph 12 mph 61 % 0 in
13:12 71.2 °F 57.9 °F 30.1 in SE 6 mph 12 mph 63 % 0 in
13:17 71.4 °F 58.1 °F 30.1 in SW 6 mph 12 mph 63 % 0 in
13:22 72.1 °F 57.9 °F 30.1 in SSW 4 mph 11 mph 61 % 0 in
13:27 71.8 °F 57.6 °F 30.1 in WSW 4 mph 9 mph 61 % 0 in
13:32 72.1 °F 57 °F 30.1 in WSW 6 mph 12 mph 59 % 0 in
13:37 72.1 °F 57.6 °F 30.1 in West 8 mph 12 mph 60 % 0 in
13:42 72.7 °F 57.6 °F 30.1 in SSE 2 mph 12 mph 59 % 0 in
13:52 72.1 °F 56.5 °F 30.1 in WSW 6 mph 11 mph 58 % 0 in
13:57 72.3 °F 57.2 °F 30.1 in WSW 5 mph 10 mph 59 % 0 in
14:02 72.3 °F 56.7 °F 30.1 in WSW 3 mph 11 mph 58 % 0 in
14:07 72.3 °F 57.7 °F 30.1 in SW 6 mph 12 mph 60 % 0 in
14:12 72.3 °F 57.2 °F 30.1 in West 5 mph 12 mph 59 % 0 in
14:17 73.2 °F 58.5 °F 30.1 in WNW 3 mph 11 mph 60 % 0 in
14:22 73.9 °F 58.3 °F 30.1 in SW 8 mph 11 mph 58 % 0 in
14:27 73.8 °F 58.1 °F 30.1 in SW 3 mph 12 mph 58 % 0 in
14:32 73.8 °F 57.6 °F 30.1 in SW 7 mph 13 mph 57 % 0 in
14:37 73.9 °F 57.7 °F 30.1 in West 6 mph 13 mph 57 % 0 in
14:42 74.1 °F 57.9 °F 30.1 in SSW 3 mph 13 mph 57 % 0 in
14:47 74.1 °F 58.5 °F 30.1 in SSW 7 mph 10 mph 58 % 0 in
14:52 73.9 °F 58.6 °F 30.1 in SSW 4 mph 13 mph 59 % 0 in
14:57 74.5 °F 59.2 °F 30.1 in SSW 3 mph 13 mph 59 % 0 in
15:02 75 °F 58.8 °F 30.1 in WNW 6 mph 13 mph 57 % 0 in
15:07 74.8 °F 58.6 °F 30.1 in WSW 5 mph 12 mph 57 % 0 in
15:12 75.4 °F 58.6 °F 30.1 in SSW 5 mph 12 mph 56 % 0 in
15:17 74.8 °F 58.1 °F 30.1 in SW 3 mph 13 mph 56 % 0 in
15:22 75 °F 57.7 °F 30.1 in SW 10 mph 13 mph 55 % 0 in
15:27 74.8 °F 57.6 °F 30.1 in SSW 5 mph 14 mph 55 % 0 in
15:32 75 °F 58.3 °F 30.1 in Calm   14 mph 56 % 0 in
15:37 75.6 °F 57.7 °F 30.1 in WNW 3 mph 14 mph 54 % 0 in
15:42 76.1 °F 60.3 °F 30.1 in SSW 6 mph 13 mph 58 % 0 in
15:47 76.1 °F 58.8 °F 30.1 in SW 7 mph 13 mph 55 % 0 in
15:52 76.1 °F 58.8 °F 30.1 in SW 8 mph 11 mph 55 % 0 in
15:57 76.6 °F 60.8 °F 30.1 in South 6 mph 11 mph 58 % 0 in
16:02 77 °F 59.5 °F 30.1 in WSW 5 mph 11 mph 55 % 0 in
16:07 77.2 °F 59.2 °F 30.1 in SW 3 mph 12 mph 54 % 0 in
16:12 77.9 °F 58.8 °F 30.1 in WSW 5 mph 12 mph 52 % 0 in
16:17 78.1 °F 59.5 °F 30.1 in West 8 mph 12 mph 53 % 0 in
16:22 77.4 °F 58.3 °F 30.1 in WNW 5 mph 13 mph 52 % 0 in
16:32 76.6 °F 58.3 °F 30.1 in WSW 2 mph 13 mph 53 % 0 in
16:42 76.6 °F 58.3 °F 30.1 in SW 6 mph 8 mph 53 % 0 in
16:47 76.6 °F 58.8 °F 30.1 in West 3 mph 8 mph 54 % 0 in
16:52 77.2 °F 58.3 °F 30.1 in WNW 2 mph 8 mph 52 % 0 in
16:57 77.5 °F 57.9 °F 30.1 in WSW 4 mph 11 mph 51 % 0 in
17:02 77.7 °F 58.6 °F 30.1 in NW 4 mph 11 mph 52 % 0 in
17:07 78.1 °F 59.5 °F 30.1 in WSW 6 mph 11 mph 53 % 0 in
17:12 77.9 °F 58.8 °F 30.1 in SW 6 mph 10 mph 52 % 0 in
17:17 77.7 °F 58.6 °F 30.1 in SW 3 mph 10 mph 52 % 0 in
17:22 77.7 °F 58.6 °F 30.1 in SE 2 mph 10 mph 52 % 0 in
17:27 77.9 °F 59.4 °F 30.1 in WSW 4 mph 10 mph 53 % 0 in
17:32 77.7 °F 58.6 °F 30.1 in WNW 3 mph 6 mph 52 % 0 in
17:37 78.1 °F 59 °F 30.1 in West 3 mph 6 mph 52 % 0 in
17:42 77.9 °F 59.4 °F 30.1 in SSW 3 mph 7 mph 53 % 0 in
17:47 77.9 °F 61 °F 30.1 in West 1 mph 7 mph 56 % 0 in
17:52 78.1 °F 59 °F 30.1 in SSW 2 mph 7 mph 52 % 0 in
17:57 77.7 °F 58.6 °F 30.1 in SW 1 mph 10 mph 52 % 0 in
18:02 77.5 °F 58.5 °F 30.1 in SW 5 mph 10 mph 52 % 0 in
18:07 77.5 °F 58.5 °F 30.1 in SSE 4 mph 10 mph 52 % 0 in
18:12 77.7 °F 58.6 °F 30.1 in SW 2 mph 11 mph 52 % 0 in
18:17 77.7 °F 58.6 °F 30.1 in SW 4 mph 11 mph 52 % 0 in
18:22 77.7 °F 58.6 °F 30 in West 3 mph 10 mph 52 % 0 in
18:27 78.1 °F 59.5 °F 30 in SW 4 mph 10 mph 53 % 0 in
18:32 78.1 °F 59 °F 30 in SSW 7 mph 10 mph 52 % 0 in
18:42 78.3 °F 59.7 °F 30 in WSW 8 mph 11 mph 53 % 0 in
18:52 77.5 °F 59 °F 30 in WSW 4 mph 11 mph 53 % 0 in
18:57 77.7 °F 60.3 °F 30 in SSW 4 mph 11 mph 55 % 0 in
19:02 77.5 °F 60.1 °F 30 in SW 6 mph 11 mph 55 % 0 in
19:07 77.4 °F 60.4 °F 30 in SW 4 mph 12 mph 56 % 0 in
19:12 77.2 °F 60.3 °F 30 in WSW 4 mph 12 mph 56 % 0 in
19:17 77.2 °F 60.3 °F 30 in SSW 6 mph 12 mph 56 % 0 in
19:22 76.8 °F 59.9 °F 30 in SW 6 mph 12 mph 56 % 0 in
19:27 76.8 °F 60.4 °F 30 in SSW 4 mph 12 mph 57 % 0 in
19:32 76.8 °F 59.9 °F 30 in SW 4 mph 12 mph 56 % 0 in
19:37 76.8 °F 59.9 °F 30 in South 3 mph 8 mph 56 % 0 in
19:42 76.6 °F 60.3 °F 30 in WSW 9 mph 9 mph 57 % 0 in
19:47 76.6 °F 60.3 °F 30 in SW 3 mph 11 mph 57 % 0 in
19:52 76.6 °F 60.8 °F 30 in West 8 mph 11 mph 58 % 0 in
20:02 76.3 °F 60.4 °F 30 in West 3 mph 12 mph 58 % 0 in
20:12 76.1 °F 60.8 °F 30 in West 2 mph 12 mph 59 % 0 in
20:22 75.7 °F 60.8 °F 30 in SW 2 mph 8 mph 60 % 0 in
20:27 75.6 °F 61.2 °F 30 in SW 1 mph 8 mph 61 % 0 in
20:32 75.4 °F 61.5 °F 30 in WSW 4 mph 8 mph 62 % 0 in
20:37 75.6 °F 61.7 °F 30 in WSW 4 mph 7 mph 62 % 0 in
20:42 75.4 °F 61.5 °F 30 in WSW 2 mph 7 mph 62 % 0 in
20:47 75 °F 61.5 °F 30 in SW 7 mph 7 mph 63 % 0 in
20:52 74.7 °F 61.7 °F 30 in WSW 3 mph 7 mph 64 % 0 in
20:57 74.5 °F 61.5 °F 30 in WSW 3 mph 8 mph 64 % 0 in
21:02 74.1 °F 61.5 °F 30 in WSW 3 mph 8 mph 65 % 0 in
21:07 73.9 °F 61.3 °F 30 in SW 3 mph 8 mph 65 % 0 in
21:12 73.9 °F 61.9 °F 30 in WSW 2 mph 6 mph 66 % 0 in
21:17 73.8 °F 61.7 °F 30 in SW 2 mph 6 mph 66 % 0 in
21:27 73.6 °F 61.5 °F 30 in West 3 mph 6 mph 66 % 0 in
21:32 73.6 °F 61.9 °F 30 in SW 3 mph 6 mph 67 % 0 in
21:37 73.4 °F 61.7 °F 30.1 in WSW 2 mph 6 mph 67 % 0 in
21:42 73.2 °F 61.5 °F 30.1 in SW 2 mph 4 mph 67 % 0 in
21:47 72.9 °F 61.7 °F 30.1 in SW 3 mph 4 mph 68 % 0 in
21:52 72.9 °F 61.7 °F 30.1 in SW 3 mph 6 mph 68 % 0 in
21:57 72.7 °F 61.5 °F 30.1 in WSW 3 mph 6 mph 68 % 0 in
22:02 72.7 °F 61.9 °F 30.1 in SW 2 mph 6 mph 69 % 0 in
22:07 72.5 °F 62.2 °F 30.1 in SSW 1 mph 5 mph 70 % 0 in
22:12 72.3 °F 62.1 °F 30.1 in WSW 2 mph 5 mph 70 % 0 in
22:17 72.3 °F 62.1 °F 30.1 in SW 2 mph 5 mph 70 % 0 in
22:22 72.3 °F 62.4 °F 30.1 in SW 3 mph 5 mph 71 % 0 in
22:27 72.3 °F 62.4 °F 30.1 in WSW 3 mph 5 mph 71 % 0 in
22:32 72.3 °F 62.4 °F 30.1 in WSW 2 mph 5 mph 71 % 0 in
22:37 72.3 °F 62.4 °F 30.1 in West 2 mph 5 mph 71 % 0 in
22:42 72.1 °F 62.2 °F 30.1 in SW 3 mph 5 mph 71 % 0 in
22:47 72.1 °F 62.6 °F 30.1 in WSW 3 mph 4 mph 72 % 0 in
22:57 72 °F 63.1 °F 30.1 in Calm   4 mph 74 % 0 in
23:02 71.4 °F 62.8 °F 30.1 in SSW 2 mph 3 mph 74 % 0 in
23:07 71.2 °F 62.6 °F 30.1 in SSW 1 mph 3 mph 74 % 0 in
23:12 71.1 °F 62.4 °F 30.1 in SSW 1 mph 2 mph 74 % 0 in
23:17 71.1 °F 62.8 °F 30.1 in Calm   2 mph 75 % 0 in
23:22 71.1 °F 62.8 °F 30.1 in SSW 1 mph 2 mph 75 % 0 in
23:27 70.9 °F 63 °F 30.1 in Calm   2 mph 76 % 0 in
23:32 70.9 °F 63 °F 30.1 in Calm   2 mph 76 % 0 in
23:37 70.7 °F 63.1 °F 30.1 in SSW 1 mph 2 mph 77 % 0 in
23:42 70.5 °F 63.3 °F 30.1 in Calm   2 mph 78 % 0 in
23:47 70.3 °F 63.1 °F 30.1 in Calm   2 mph 78 % 0 in
23:52 70.3 °F 63.1 °F 30.1 in Calm   2 mph 78 % 0 in
23:57 70.2 °F 63 °F 30 in ESE 1 mph 1 mph 78 % 0 in
Meteo18
Compliments of Weather Underground - 4 mb

Script developed by  Jim McMurry - jmcmurry@mwt.net Adapted for the template by  Wim van der Kuil - Leuven-Template.eu

You find our weather info also at:

European Weather Network

Weather Underground

Equipment we use:

Weather-station
Davis Vue

Weather-program
Meteohub

Weather-server
Raspberry PI 2 B+

Provider
1 and 1

Davis Vue

Meteohub

Raspberry PI 2 B+

1 and 1